createdAt,value
2018-05-15T00:02:25.603Z,12.50
2018-05-15T00:04:53.917Z,12.40
2018-05-15T00:07:22.249Z,12.40
2018-05-15T00:09:50.634Z,12.40
2018-05-15T00:12:18.963Z,12.40
2018-05-15T00:14:47.979Z,12.40
2018-05-15T00:17:16.372Z,12.40
2018-05-15T00:19:44.649Z,12.50
2018-05-15T00:22:13.745Z,12.50
2018-05-15T00:24:42.120Z,12.50
2018-05-15T00:27:10.408Z,12.50
2018-05-15T00:29:39.465Z,12.60
2018-05-15T00:32:07.743Z,12.60
2018-05-15T00:34:36.036Z,12.50
2018-05-15T00:37:06.321Z,12.40
2018-05-15T00:39:34.643Z,12.40
2018-05-15T00:42:03.748Z,12.30
2018-05-15T00:44:32.151Z,12.30
2018-05-15T00:47:00.502Z,12.10
2018-05-15T00:49:28.985Z,12.00
2018-05-15T00:51:58.759Z,11.90
2018-05-15T00:54:27.140Z,11.90
2018-05-15T00:56:55.376Z,11.90
2018-05-15T00:59:24.029Z,12.00
2018-05-15T01:01:52.256Z,11.90
2018-05-15T01:04:20.544Z,11.90
2018-05-15T01:06:48.806Z,11.80
2018-05-15T01:09:17.095Z,11.80
2018-05-15T01:11:45.384Z,11.80
2018-05-15T01:14:13.771Z,11.80
2018-05-15T01:16:41.997Z,11.70
2018-05-15T01:19:11.042Z,11.60
2018-05-15T01:21:39.340Z,11.60
2018-05-15T01:24:07.725Z,11.40
2018-05-15T01:26:35.978Z,11.20
2018-05-15T01:29:04.272Z,11.10
2018-05-15T01:31:32.548Z,11.20
2018-05-15T01:34:00.820Z,11.20
2018-05-15T01:36:29.094Z,11.20
2018-05-15T01:38:57.361Z,11.20
2018-05-15T01:41:25.662Z,11.20
2018-05-15T01:43:54.732Z,11.30
2018-05-15T01:46:23.008Z,11.20
2018-05-15T01:48:51.306Z,11.20
2018-05-15T01:51:19.586Z,11.10
2018-05-15T01:53:48.778Z,11.00
2018-05-15T01:56:17.903Z,11.00
2018-05-15T01:58:46.945Z,10.80
2018-05-15T02:01:16.102Z,10.80
2018-05-15T02:03:45.137Z,10.90
2018-05-15T02:06:13.380Z,10.90
2018-05-15T02:08:42.433Z,10.90
2018-05-15T02:11:10.680Z,10.80
2018-05-15T02:13:38.937Z,10.80
2018-05-15T02:16:08.004Z,10.50
2018-05-15T02:18:36.264Z,10.50
2018-05-15T02:21:04.522Z,10.40
2018-05-15T02:23:32.797Z,10.40
2018-05-15T02:26:01.066Z,10.30
2018-05-15T02:28:29.296Z,10.30
2018-05-15T02:30:57.586Z,10.30
2018-05-15T02:33:26.623Z,10.30
2018-05-15T02:35:54.903Z,10.20
2018-05-15T02:38:23.201Z,10.30
2018-05-15T02:40:51.453Z,10.40
2018-05-15T02:43:19.729Z,10.30
2018-05-15T02:45:48.185Z,10.40
2018-05-15T02:48:17.029Z,10.40
2018-05-15T02:50:45.330Z,10.40
2018-05-15T02:53:13.914Z,10.40
2018-05-15T02:55:42.157Z,10.30
2018-05-15T02:58:10.436Z,10.20
2018-05-15T03:00:38.669Z,10.10
2018-05-15T03:03:07.680Z,10.10
2018-05-15T03:05:35.999Z,10.00
2018-05-15T03:08:04.301Z,10.00
2018-05-15T03:10:32.577Z,10.00
2018-05-15T03:13:01.589Z,10.10
2018-05-15T03:15:29.988Z,10.00
2018-05-15T03:17:58.272Z,10.00
2018-05-15T03:20:26.544Z,10.10
2018-05-15T03:22:54.828Z,10.10
2018-05-15T03:25:23.112Z,10.10
2018-05-15T03:27:51.356Z,10.10
2018-05-15T03:30:20.395Z,9.90
2018-05-15T03:32:48.659Z,9.90
2018-05-15T03:35:16.928Z,9.90
2018-05-15T03:37:45.656Z,10.00
2018-05-15T03:40:13.931Z,9.90
2018-05-15T03:42:43.161Z,9.90
2018-05-15T03:45:12.241Z,9.80
2018-05-15T03:47:40.477Z,9.70
2018-05-15T03:50:08.769Z,9.70
2018-05-15T03:52:37.054Z,9.70
2018-05-15T03:55:05.323Z,9.60
2018-05-15T03:57:34.494Z,9.80
2018-05-15T04:00:02.736Z,9.80
2018-05-15T04:02:43.733Z,9.80
2018-05-15T04:05:24.640Z,9.70
2018-05-15T04:07:59.785Z,9.70
2018-05-15T04:10:28.158Z,9.60
2018-05-15T04:12:56.529Z,9.60
2018-05-15T04:15:24.769Z,9.60
2018-05-15T04:17:53.829Z,9.70
2018-05-15T04:20:22.044Z,9.70
2018-05-15T04:22:51.072Z,9.90
2018-05-15T04:25:19.309Z,9.90
2018-05-15T04:27:48.266Z,10.30
2018-05-15T04:30:16.628Z,11.10
2018-05-15T04:32:44.908Z,11.80
2018-05-15T04:35:13.175Z,12.50
2018-05-15T04:37:41.480Z,13.00
2018-05-15T04:40:09.733Z,14.00
2018-05-15T04:42:38.440Z,14.70
2018-05-15T04:45:06.691Z,15.90
2018-05-15T04:47:34.961Z,16.40
2018-05-15T04:50:03.223Z,17.10
2018-05-15T04:52:32.929Z,17.30
2018-05-15T04:55:01.943Z,16.90
2018-05-15T04:57:30.262Z,16.80
2018-05-15T04:59:58.525Z,16.70
2018-05-15T05:02:27.535Z,18.00
2018-05-15T05:04:56.622Z,19.50
2018-05-15T05:07:24.947Z,19.50
2018-05-15T05:09:53.994Z,19.80
2018-05-15T05:12:23.372Z,19.80
2018-05-15T05:14:51.632Z,19.30
2018-05-15T05:17:19.925Z,18.40
2018-05-15T05:19:48.291Z,17.20
2018-05-15T05:22:17.608Z,16.20
2018-05-15T05:24:46.074Z,15.10
2018-05-15T05:27:15.570Z,14.00
2018-05-15T05:29:44.546Z,14.00
2018-05-15T05:32:13.547Z,13.70
2018-05-15T05:34:41.813Z,13.60
2018-05-15T05:37:10.152Z,13.40
2018-05-15T05:39:38.853Z,13.40
2018-05-15T05:42:07.851Z,13.50
2018-05-15T05:44:36.129Z,13.40
2018-05-15T05:47:04.421Z,13.20
2018-05-15T05:49:32.680Z,13.00
2018-05-15T05:52:00.965Z,13.00
2018-05-15T05:54:29.961Z,13.20
2018-05-15T05:56:58.225Z,13.20
2018-05-15T05:59:27.343Z,13.40
2018-05-15T06:01:55.608Z,13.50
2018-05-15T06:04:23.862Z,13.60
2018-05-15T06:06:53.757Z,13.70
2018-05-15T06:09:22.821Z,13.80
2018-05-15T06:11:51.060Z,13.70
2018-05-15T06:14:19.356Z,13.90
2018-05-15T06:16:48.185Z,13.90
2018-05-15T06:19:16.464Z,14.00
2018-05-15T06:21:44.742Z,14.10
2018-05-15T06:24:12.970Z,14.20
2018-05-15T06:26:41.232Z,14.20
2018-05-15T06:29:09.496Z,14.40
2018-05-15T06:31:37.773Z,14.40
2018-05-15T06:34:06.043Z,14.50
2018-05-15T06:36:34.391Z,14.70
2018-05-15T06:39:02.693Z,14.70
2018-05-15T06:41:31.014Z,15.00
2018-05-15T06:43:59.251Z,15.10
2018-05-15T06:46:27.509Z,15.30
2018-05-15T06:48:56.043Z,15.50
2018-05-15T06:51:24.370Z,15.60
2018-05-15T06:53:52.618Z,15.80
2018-05-15T06:56:20.904Z,16.00
2018-05-15T06:58:49.172Z,16.20
2018-05-15T07:01:17.410Z,16.40
2018-05-15T07:03:45.676Z,16.50
2018-05-15T07:06:14.681Z,16.90
2018-05-15T07:08:42.991Z,16.80
2018-05-15T07:11:11.249Z,17.10
2018-05-15T07:13:39.540Z,17.30
2018-05-15T07:16:07.831Z,17.40
2018-05-15T07:18:36.122Z,17.60
2018-05-15T07:21:04.448Z,17.60
2018-05-15T07:23:33.541Z,17.80
2018-05-15T07:26:01.812Z,17.80
2018-05-15T07:28:30.865Z,18.20
2018-05-15T07:30:59.127Z,18.20
2018-05-15T07:33:27.421Z,18.40
2018-05-15T07:35:55.721Z,18.40
2018-05-15T07:38:24.003Z,18.60
2018-05-15T07:40:52.310Z,18.80
2018-05-15T07:43:21.331Z,19.10
2018-05-15T07:45:49.608Z,19.10
2018-05-15T07:48:17.911Z,19.30
2018-05-15T07:50:46.180Z,19.50
2018-05-15T07:53:14.457Z,19.60
2018-05-15T07:55:42.845Z,19.70
2018-05-15T07:58:11.105Z,19.80
2018-05-15T08:00:39.386Z,19.80
2018-05-15T08:03:07.644Z,19.80
2018-05-15T08:05:35.940Z,19.80
2018-05-15T08:08:04.495Z,20.00
2018-05-15T08:10:33.554Z,20.00
2018-05-15T08:13:01.814Z,19.90
2018-05-15T08:15:30.106Z,20.10
2018-05-15T08:17:58.394Z,20.20
2018-05-15T08:20:26.690Z,20.30
2018-05-15T08:22:55.205Z,20.40
2018-05-15T08:25:24.278Z,20.50
2018-05-15T08:27:53.395Z,20.40
2018-05-15T08:30:21.729Z,20.40
2018-05-15T08:32:50.865Z,20.40
2018-05-15T08:35:20.094Z,20.50
2018-05-15T08:37:49.097Z,20.60
2018-05-15T08:40:18.062Z,20.60
2018-05-15T08:42:46.308Z,20.70
2018-05-15T08:45:15.490Z,20.90
2018-05-15T08:47:44.519Z,20.80
2018-05-15T08:50:12.806Z,21.00
2018-05-15T08:52:41.040Z,21.00
2018-05-15T08:55:10.098Z,21.00
2018-05-15T08:57:38.849Z,21.00
2018-05-15T09:00:07.945Z,21.10
2018-05-15T09:02:37.424Z,21.20
2018-05-15T09:05:07.465Z,21.20
2018-05-15T09:07:36.872Z,21.20
2018-05-15T09:10:05.192Z,21.20
2018-05-15T09:12:33.459Z,21.40
2018-05-15T09:15:01.806Z,21.40
2018-05-15T09:17:30.073Z,21.40
2018-05-15T09:19:59.089Z,21.60
2018-05-15T09:22:27.490Z,21.60
2018-05-15T09:24:55.736Z,21.70
2018-05-15T09:27:24.016Z,21.80
2018-05-15T09:29:52.311Z,21.90
2018-05-15T09:32:20.572Z,22.00
2018-05-15T09:34:48.862Z,22.10
2018-05-15T09:37:17.914Z,22.10
2018-05-15T09:39:47.117Z,22.20
2018-05-15T09:42:16.190Z,22.10
2018-05-15T09:44:44.945Z,22.20
2018-05-15T09:47:13.315Z,22.00
2018-05-15T09:49:41.603Z,21.80
2018-05-15T09:52:10.746Z,21.80
2018-05-15T09:54:40.472Z,21.70
2018-05-15T09:57:08.795Z,21.70
2018-05-15T09:59:37.753Z,21.70
2018-05-15T10:02:08.336Z,21.50
2018-05-15T10:04:36.677Z,21.50
2018-05-15T10:07:04.953Z,21.60
2018-05-15T10:09:34.529Z,21.60
2018-05-15T10:12:02.876Z,21.80
2018-05-15T10:14:32.378Z,21.90
2018-05-15T10:17:01.113Z,22.10
2018-05-15T10:19:30.927Z,22.10
2018-05-15T10:21:59.207Z,22.10
2018-05-15T10:24:28.246Z,22.20
2018-05-15T10:26:57.722Z,22.10
2018-05-15T10:29:26.729Z,22.10
2018-05-15T10:31:55.591Z,22.10
2018-05-15T10:34:24.693Z,22.30
2018-05-15T10:36:52.963Z,22.30
2018-05-15T10:39:22.081Z,22.70
2018-05-15T10:41:50.355Z,22.70
2018-05-15T10:44:20.234Z,22.80
2018-05-15T10:46:49.412Z,22.80
2018-05-15T10:49:18.462Z,22.90
2018-05-15T10:51:47.638Z,23.40
2018-05-15T10:54:15.931Z,23.30
2018-05-15T10:56:43.745Z,23.40
2018-05-15T10:59:11.757Z,23.30
2018-05-15T11:01:39.867Z,22.90
2018-05-15T11:04:08.189Z,22.80
2018-05-15T11:06:36.448Z,22.60
2018-05-15T11:09:04.765Z,22.60
2018-05-15T11:11:33.101Z,22.40
2018-05-15T11:14:01.996Z,22.30
2018-05-15T11:16:30.292Z,22.20
2018-05-15T11:22:13.620Z,22.40
2018-05-15T11:24:51.819Z,22.20
2018-05-15T11:27:20.136Z,22.20
2018-05-15T11:29:48.768Z,22.20
2018-05-15T11:32:16.529Z,22.20
2018-05-15T11:34:45.301Z,22.20
2018-05-15T11:37:14.344Z,22.20
2018-05-15T11:39:42.205Z,22.20
2018-05-15T11:42:10.692Z,22.20
2018-05-15T11:44:38.427Z,22.20
2018-05-15T11:47:06.139Z,22.30
2018-05-15T11:49:34.507Z,22.30
2018-05-15T11:52:02.522Z,22.50
2018-05-15T11:54:29.472Z,22.40
2018-05-15T11:56:57.175Z,22.30
2018-05-15T11:59:26.505Z,22.00
2018-05-15T12:01:54.777Z,21.90
2018-05-15T12:04:22.590Z,21.90
2018-05-15T12:06:50.700Z,22.10
2018-05-15T12:09:18.487Z,22.10
2018-05-15T12:11:46.208Z,22.20
2018-05-15T12:14:14.172Z,22.40
2018-05-15T12:16:41.859Z,22.30
2018-05-15T12:19:09.622Z,22.10
2018-05-15T12:21:37.319Z,22.10
2018-05-15T12:24:05.075Z,22.10
2018-05-15T12:26:32.802Z,22.10
2018-05-15T12:29:01.347Z,22.10
2018-05-15T12:31:29.823Z,22.00
2018-05-15T12:33:57.655Z,21.90
2018-05-15T12:36:27.409Z,22.00
2018-05-15T12:38:55.313Z,21.90
2018-05-15T12:41:23.811Z,22.20
2018-05-15T12:43:52.280Z,22.50
2018-05-15T12:46:20.949Z,22.70
2018-05-15T12:48:48.700Z,22.60
2018-05-15T12:51:17.260Z,23.00
2018-05-15T12:53:45.014Z,23.00
2018-05-15T12:56:13.478Z,23.40
2018-05-15T12:58:43.008Z,23.30
2018-05-15T13:01:12.292Z,23.30
2018-05-15T13:03:40.041Z,22.90
2018-05-15T13:06:09.298Z,22.40
2018-05-15T13:08:38.037Z,22.40
2018-05-15T13:11:06.566Z,22.30
2018-05-15T13:13:34.407Z,22.30
2018-05-15T13:16:02.110Z,22.40
2018-05-15T13:18:30.495Z,22.30
2018-05-15T13:20:58.254Z,22.10
2018-05-15T13:23:26.905Z,22.10
2018-05-15T13:25:54.662Z,22.10
2018-05-15T13:28:23.521Z,22.20
2018-05-15T13:30:52.896Z,22.50
2018-05-15T13:33:20.615Z,22.50
2018-05-15T13:35:48.361Z,22.70
2018-05-15T13:38:16.549Z,22.80
2018-05-15T13:40:44.343Z,22.90
2018-05-15T13:43:12.536Z,23.10
2018-05-15T13:45:40.378Z,23.30
2018-05-15T13:48:08.117Z,23.50
2018-05-15T13:50:36.669Z,23.30
2018-05-15T13:53:05.327Z,23.20
2018-05-15T13:55:33.531Z,23.20
2018-05-15T13:58:02.166Z,23.00
2018-05-15T14:00:29.880Z,23.00
2018-05-15T14:02:58.405Z,22.90
2018-05-15T14:05:26.143Z,22.90
2018-05-15T14:07:53.824Z,22.80
2018-05-15T14:10:22.766Z,22.60
2018-05-15T14:12:50.687Z,22.60
2018-05-15T14:15:19.328Z,22.60
2018-05-15T14:17:47.878Z,22.50
2018-05-15T14:20:16.532Z,22.50
2018-05-15T14:22:44.283Z,22.50
2018-05-15T14:25:12.016Z,22.60
2018-05-15T14:27:40.777Z,22.70
2018-05-15T14:30:08.665Z,22.80
2018-05-15T14:32:36.354Z,22.90
2018-05-15T14:35:04.161Z,23.00
2018-05-15T14:37:33.187Z,23.20
2018-05-15T14:40:01.490Z,23.40
2018-05-15T14:42:36.723Z,23.40
2018-05-15T14:45:04.522Z,23.40
2018-05-15T14:47:32.282Z,23.40
2018-05-15T14:50:00.030Z,23.20
2018-05-15T14:52:27.726Z,23.10
2018-05-15T14:54:55.721Z,23.00
2018-05-15T14:57:24.308Z,23.30
2018-05-15T14:59:56.754Z,23.30
2018-05-15T15:02:24.921Z,23.40
2018-05-15T15:04:52.881Z,23.40
2018-05-15T15:07:21.161Z,23.40
2018-05-15T15:09:48.912Z,23.30
2018-05-15T15:12:17.085Z,23.10
2018-05-15T15:14:46.881Z,23.10
2018-05-15T15:17:14.681Z,22.90
2018-05-15T15:19:46.447Z,22.70
2018-05-15T15:22:14.339Z,22.50
2018-05-15T15:24:44.241Z,22.30
2018-05-15T15:27:12.596Z,22.20
2018-05-15T15:29:42.099Z,22.10
2018-05-15T15:32:09.847Z,22.10
2018-05-15T15:34:38.575Z,22.10
2018-05-15T15:37:06.364Z,22.10
2018-05-15T15:39:34.914Z,22.20
2018-05-15T15:42:02.646Z,22.20
2018-05-15T15:44:31.421Z,22.20
2018-05-15T15:46:59.244Z,22.30
2018-05-15T15:49:27.930Z,22.30
2018-05-15T15:51:56.400Z,22.20
2018-05-15T15:54:25.041Z,22.30
2018-05-15T15:56:52.781Z,22.30
2018-05-15T15:59:22.795Z,22.40
2018-05-15T16:01:51.311Z,22.60
2018-05-15T16:04:20.105Z,22.60
2018-05-15T16:06:48.822Z,22.70
2018-05-15T16:09:18.769Z,22.80
2018-05-15T16:11:46.509Z,22.80
2018-05-15T16:14:14.221Z,22.80
2018-05-15T16:16:42.011Z,22.70
2018-05-15T16:19:09.754Z,22.80
2018-05-15T16:21:38.221Z,22.70
2018-05-15T16:24:08.669Z,22.70
2018-05-15T16:26:36.458Z,22.70
2018-05-15T16:29:04.237Z,22.80
2018-05-15T16:31:33.379Z,22.90
2018-05-15T16:34:01.206Z,23.10
2018-05-15T16:36:28.956Z,23.00
2018-05-15T16:38:56.653Z,23.10
2018-05-15T16:41:25.272Z,23.00
2018-05-15T16:43:52.950Z,22.90
2018-05-15T16:46:20.766Z,23.10
2018-05-15T16:48:48.486Z,23.10
2018-05-15T16:51:16.201Z,23.20
2018-05-15T16:53:43.948Z,23.20
2018-05-15T16:56:11.692Z,23.20
2018-05-15T16:58:39.433Z,23.10
2018-05-15T17:01:07.905Z,22.70
2018-05-15T17:03:35.618Z,22.70
2018-05-15T17:06:03.876Z,22.50
2018-05-15T17:08:31.648Z,22.40
2018-05-15T17:10:59.378Z,22.50
2018-05-15T17:13:27.168Z,22.50
2018-05-15T17:15:54.867Z,22.40
2018-05-15T17:18:22.632Z,22.50
2018-05-15T17:20:50.352Z,22.60
2018-05-15T17:23:18.144Z,22.50
2018-05-15T17:25:45.859Z,22.60
2018-05-15T17:28:13.595Z,22.40
2018-05-15T17:30:42.216Z,22.40
2018-05-15T17:33:09.971Z,22.40
2018-05-15T17:35:38.163Z,22.40
2018-05-15T17:38:06.106Z,22.40
2018-05-15T17:40:33.811Z,22.50
2018-05-15T17:43:01.611Z,22.40
2018-05-15T17:45:29.358Z,22.40
2018-05-15T17:47:58.388Z,22.40
2018-05-15T17:50:26.073Z,22.40
2018-05-15T17:52:54.030Z,22.40
2018-05-15T17:55:22.458Z,22.10
2018-05-15T17:57:50.255Z,22.10
2018-05-15T18:00:18.132Z,22.00
2018-05-15T18:02:46.101Z,21.70
2018-05-15T18:05:14.369Z,21.80
2018-05-15T18:07:42.470Z,21.70
2018-05-15T18:10:11.000Z,21.50
2018-05-15T18:12:39.755Z,21.50
2018-05-15T18:15:07.577Z,21.40
2018-05-15T18:17:35.620Z,21.30
2018-05-15T18:20:03.491Z,21.20
2018-05-15T18:22:31.298Z,21.20
2018-05-15T18:24:59.133Z,21.30
2018-05-15T18:27:27.921Z,21.30
2018-05-15T18:29:55.714Z,21.30
2018-05-15T18:32:23.590Z,21.30
2018-05-15T18:34:52.929Z,21.30
2018-05-15T18:37:21.625Z,21.30
2018-05-15T18:39:49.378Z,21.20
2018-05-15T18:42:18.965Z,21.10
2018-05-15T18:44:47.701Z,21.10
2018-05-15T18:47:15.412Z,21.00
2018-05-15T18:49:44.521Z,21.00
2018-05-15T18:52:12.257Z,21.00
2018-05-15T18:54:40.023Z,20.90
2018-05-15T18:57:09.115Z,20.90
2018-05-15T18:59:36.850Z,20.80
2018-05-15T19:02:04.643Z,20.80
2018-05-15T19:04:33.853Z,20.70
2018-05-15T19:07:02.434Z,20.60
2018-05-15T19:09:31.338Z,20.60
2018-05-15T19:12:00.024Z,20.60
2018-05-15T19:14:27.827Z,20.50
2018-05-15T19:16:57.068Z,20.40
2018-05-15T19:19:24.894Z,20.40
2018-05-15T19:21:52.840Z,20.40
2018-05-15T19:24:22.651Z,20.40
2018-05-15T19:26:51.512Z,20.40
2018-05-15T19:29:19.949Z,20.30
2018-05-15T19:31:54.313Z,20.10
2018-05-15T19:34:23.244Z,20.10
2018-05-15T19:36:58.062Z,20.10
2018-05-15T19:39:32.676Z,20.00
2018-05-15T19:42:01.224Z,20.00
2018-05-15T19:44:29.623Z,19.90
2018-05-15T19:46:57.524Z,19.80
2018-05-15T19:49:25.873Z,19.70
2018-05-15T19:51:54.487Z,19.60
2018-05-15T19:54:23.179Z,19.50
2018-05-15T19:56:51.907Z,19.10
2018-05-15T19:59:20.460Z,19.10
2018-05-15T20:01:48.979Z,18.90
2018-05-15T20:04:16.991Z,18.90
2018-05-15T20:06:44.792Z,18.80
2018-05-15T20:09:12.595Z,18.70
2018-05-15T20:11:40.386Z,18.60
2018-05-15T20:14:08.115Z,18.40
2018-05-15T20:16:37.160Z,18.30
2018-05-15T20:19:06.893Z,18.40
2018-05-15T20:21:36.311Z,18.40
2018-05-15T20:24:04.827Z,18.30
2018-05-15T20:26:33.344Z,18.30
2018-05-15T20:29:01.632Z,18.40
2018-05-15T20:31:29.381Z,18.30
2018-05-15T20:33:58.086Z,18.20
2018-05-15T20:36:26.562Z,18.20
2018-05-15T20:38:55.920Z,18.00
2018-05-15T20:41:24.505Z,18.00
2018-05-15T20:43:52.252Z,18.00
2018-05-15T20:46:20.896Z,17.90
2018-05-15T20:48:48.614Z,17.80
2018-05-15T20:51:16.452Z,17.90
2018-05-15T20:53:44.588Z,17.80
2018-05-15T20:56:12.321Z,17.80
2018-05-15T20:58:40.220Z,17.70
2018-05-15T21:01:08.743Z,17.60
2018-05-15T21:03:36.540Z,17.60
2018-05-15T21:06:04.373Z,17.60
2018-05-15T21:08:33.001Z,17.40
2018-05-15T21:11:00.799Z,17.40
2018-05-15T21:13:28.683Z,17.40
2018-05-15T21:15:58.094Z,17.30
2018-05-15T21:18:26.600Z,17.10
2018-05-15T21:20:55.738Z,17.00
2018-05-15T21:23:23.572Z,17.00
2018-05-15T21:25:51.355Z,16.90
2018-05-15T21:28:19.464Z,16.80
2018-05-15T21:30:47.938Z,16.80
2018-05-15T21:33:15.632Z,16.70
2018-05-15T21:35:44.928Z,16.60
2018-05-15T21:38:12.652Z,16.60
2018-05-15T21:40:40.404Z,16.50
2018-05-15T21:43:08.162Z,16.40
2018-05-15T21:45:35.914Z,16.40
2018-05-15T21:48:03.674Z,16.40
2018-05-15T21:50:31.403Z,16.50
2018-05-15T21:52:59.125Z,16.60
2018-05-15T21:55:27.784Z,16.70
2018-05-15T21:57:55.575Z,16.70
2018-05-15T22:00:23.308Z,16.80
2018-05-15T22:02:51.816Z,17.00
2018-05-15T22:05:19.528Z,17.00
2018-05-15T22:07:47.776Z,17.10
2018-05-15T22:10:15.475Z,17.10
2018-05-15T22:12:49.019Z,17.10
2018-05-15T22:15:28.999Z,17.20
2018-05-15T22:18:08.780Z,17.20
2018-05-15T22:20:48.422Z,17.20
2018-05-15T22:23:21.885Z,17.20
2018-05-15T22:25:49.369Z,17.20
2018-05-15T22:28:17.955Z,17.30
2018-05-15T22:30:45.665Z,17.30
2018-05-15T22:33:14.408Z,17.30
2018-05-15T22:35:42.133Z,17.30
2018-05-15T22:38:09.826Z,17.30
2018-05-15T22:40:37.532Z,17.30
2018-05-15T22:43:05.990Z,17.30
2018-05-15T22:45:33.717Z,17.30
2018-05-15T22:48:01.531Z,17.30
2018-05-15T22:50:29.196Z,17.20
2018-05-15T22:52:58.125Z,17.10
2018-05-15T22:55:25.975Z,17.10
2018-05-15T22:57:54.888Z,17.00
2018-05-15T23:00:22.708Z,17.00
2018-05-15T23:02:51.243Z,17.10
2018-05-15T23:05:18.937Z,17.10
2018-05-15T23:07:47.210Z,17.10
2018-05-15T23:10:15.189Z,17.20
2018-05-15T23:12:43.384Z,17.20
2018-05-15T23:15:11.174Z,17.10
2018-05-15T23:17:38.913Z,17.00
2018-05-15T23:20:07.390Z,16.90
2018-05-15T23:22:41.889Z,16.90
2018-05-15T23:25:09.584Z,16.90
2018-05-15T23:27:38.141Z,16.90
2018-05-15T23:30:05.846Z,16.80
2018-05-15T23:32:34.316Z,16.80
2018-05-15T23:35:02.004Z,16.80
2018-05-15T23:37:29.719Z,16.70
2018-05-15T23:39:57.458Z,16.40
2018-05-15T23:42:25.183Z,16.30
2018-05-15T23:44:52.878Z,16.20
2018-05-15T23:47:20.568Z,16.00
2018-05-15T23:49:48.277Z,15.80
2018-05-15T23:52:16.741Z,15.70
2018-05-15T23:54:44.508Z,15.70
2018-05-15T23:57:12.221Z,15.70
2018-05-15T23:59:39.915Z,15.70
